sensor_id;sensor_type;location;lat;lon;timestamp;P1;durP1;ratioP1;P2;durP2;ratioP2
62933;SDS011;49038;47.600;19.242;2022-10-31T00:02:54;21.35;;;10.35;;
62933;SDS011;49038;47.600;19.242;2022-10-31T00:05:56;18.12;;;9.20;;
62933;SDS011;49038;47.600;19.242;2022-10-31T00:08:59;20.85;;;9.75;;
62933;SDS011;49038;47.600;19.242;2022-10-31T00:12:02;22.15;;;10.35;;
62933;SDS011;49038;47.600;19.242;2022-10-31T00:15:04;24.85;;;9.82;;
62933;SDS011;49038;47.600;19.242;2022-10-31T00:18:07;20.92;;;10.07;;
62933;SDS011;49038;47.600;19.242;2022-10-31T00:21:10;23.85;;;9.70;;
62933;SDS011;49038;47.600;19.242;2022-10-31T00:24:12;24.75;;;10.50;;
62933;SDS011;49038;47.600;19.242;2022-10-31T00:27:15;23.02;;;10.20;;
62933;SDS011;49038;47.600;19.242;2022-10-31T00:30:17;24.05;;;10.77;;
62933;SDS011;49038;47.600;19.242;2022-10-31T00:33:19;22.58;;;10.25;;
62933;SDS011;49038;47.600;19.242;2022-10-31T00:36:21;29.15;;;10.68;;
62933;SDS011;49038;47.600;19.242;2022-10-31T00:39:23;23.00;;;8.73;;
62933;SDS011;49038;47.600;19.242;2022-10-31T00:42:25;20.37;;;9.23;;
62933;SDS011;49038;47.600;19.242;2022-10-31T00:45:27;27.90;;;9.77;;
62933;SDS011;49038;47.600;19.242;2022-10-31T00:48:30;25.33;;;10.00;;
62933;SDS011;49038;47.600;19.242;2022-10-31T00:51:32;24.37;;;10.20;;
62933;SDS011;49038;47.600;19.242;2022-10-31T00:54:34;19.80;;;8.55;;
62933;SDS011;49038;47.600;19.242;2022-10-31T00:57:36;27.95;;;9.90;;
62933;SDS011;49038;47.600;19.242;2022-10-31T01:00:38;24.77;;;10.82;;
62933;SDS011;49038;47.600;19.242;2022-10-31T01:03:41;30.85;;;9.75;;
62933;SDS011;49038;47.600;19.242;2022-10-31T01:06:43;22.70;;;9.25;;
62933;SDS011;49038;47.600;19.242;2022-10-31T01:09:45;26.55;;;10.00;;
62933;SDS011;49038;47.600;19.242;2022-10-31T01:12:48;23.65;;;9.27;;
62933;SDS011;49038;47.600;19.242;2022-10-31T01:15:54;23.10;;;9.18;;
62933;SDS011;49038;47.600;19.242;2022-10-31T01:18:57;25.48;;;10.80;;
62933;SDS011;49038;47.600;19.242;2022-10-31T01:21:59;28.20;;;9.60;;
62933;SDS011;49038;47.600;19.242;2022-10-31T01:25:02;17.98;;;9.40;;
62933;SDS011;49038;47.600;19.242;2022-10-31T01:28:04;25.58;;;10.27;;
62933;SDS011;49038;47.600;19.242;2022-10-31T01:31:07;22.60;;;8.98;;
62933;SDS011;49038;47.600;19.242;2022-10-31T01:34:13;20.23;;;8.70;;
62933;SDS011;49038;47.600;19.242;2022-10-31T01:37:16;26.30;;;10.00;;
62933;SDS011;49038;47.600;19.242;2022-10-31T01:40:18;25.40;;;9.57;;
62933;SDS011;49038;47.600;19.242;2022-10-31T01:43:21;27.87;;;10.30;;
62933;SDS011;49038;47.600;19.242;2022-10-31T01:46:45;26.23;;;10.52;;
62933;SDS011;49038;47.600;19.242;2022-10-31T01:49:51;29.42;;;11.27;;
62933;SDS011;49038;47.600;19.242;2022-10-31T01:52:54;21.08;;;9.43;;
62933;SDS011;49038;47.600;19.242;2022-10-31T01:55:57;21.85;;;9.55;;
62933;SDS011;49038;47.600;19.242;2022-10-31T01:59:00;29.80;;;10.68;;
62933;SDS011;49038;47.600;19.242;2022-10-31T02:02:03;27.27;;;9.88;;
62933;SDS011;49038;47.600;19.242;2022-10-31T02:05:07;26.62;;;9.68;;
62933;SDS011;49038;47.600;19.242;2022-10-31T02:08:21;29.58;;;11.32;;
62933;SDS011;49038;47.600;19.242;2022-10-31T02:11:27;33.35;;;11.32;;
62933;SDS011;49038;47.600;19.242;2022-10-31T02:14:30;27.40;;;11.48;;
62933;SDS011;49038;47.600;19.242;2022-10-31T02:17:32;25.73;;;11.30;;
62933;SDS011;49038;47.600;19.242;2022-10-31T02:21:21;26.02;;;10.65;;
62933;SDS011;49038;47.600;19.242;2022-10-31T02:28:01;28.98;;;10.20;;
62933;SDS011;49038;47.600;19.242;2022-10-31T02:34:30;21.50;;;9.82;;
62933;SDS011;49038;47.600;19.242;2022-10-31T02:37:49;31.27;;;9.75;;
62933;SDS011;49038;47.600;19.242;2022-10-31T02:41:09;28.20;;;9.82;;
62933;SDS011;49038;47.600;19.242;2022-10-31T02:44:19;21.92;;;9.00;;
62933;SDS011;49038;47.600;19.242;2022-10-31T02:47:27;27.98;;;11.20;;
62933;SDS011;49038;47.600;19.242;2022-10-31T02:50:32;19.12;;;9.40;;
62933;SDS011;49038;47.600;19.242;2022-10-31T02:53:37;24.30;;;10.30;;
62933;SDS011;49038;47.600;19.242;2022-10-31T02:56:39;28.17;;;10.23;;
62933;SDS011;49038;47.600;19.242;2022-10-31T02:59:44;33.72;;;10.18;;
62933;SDS011;49038;47.600;19.242;2022-10-31T03:15:30;21.70;;;8.82;;
62933;SDS011;49038;47.600;19.242;2022-10-31T03:18:34;22.02;;;9.75;;
62933;SDS011;49038;47.600;19.242;2022-10-31T03:21:43;30.65;;;9.93;;
62933;SDS011;49038;47.600;19.242;2022-10-31T03:24:47;22.85;;;7.97;;
62933;SDS011;49038;47.600;19.242;2022-10-31T03:27:52;21.92;;;9.65;;
62933;SDS011;49038;47.600;19.242;2022-10-31T03:30:55;25.05;;;9.25;;
62933;SDS011;49038;47.600;19.242;2022-10-31T03:33:59;25.05;;;8.95;;
62933;SDS011;49038;47.600;19.242;2022-10-31T03:37:03;19.55;;;8.55;;
62933;SDS011;49038;47.600;19.242;2022-10-31T03:40:09;22.75;;;8.65;;
62933;SDS011;49038;47.600;19.242;2022-10-31T03:43:20;22.92;;;8.18;;
62933;SDS011;49038;47.600;19.242;2022-10-31T03:46:24;16.42;;;7.93;;
62933;SDS011;49038;47.600;19.242;2022-10-31T03:49:27;21.62;;;8.27;;
62933;SDS011;49038;47.600;19.242;2022-10-31T03:55:40;21.00;;;7.97;;
62933;SDS011;49038;47.600;19.242;2022-10-31T03:58:52;25.37;;;8.32;;
62933;SDS011;49038;47.600;19.242;2022-10-31T04:01:57;17.95;;;7.35;;
62933;SDS011;49038;47.600;19.242;2022-10-31T04:05:04;19.40;;;8.13;;
62933;SDS011;49038;47.600;19.242;2022-10-31T04:08:07;17.20;;;8.00;;
62933;SDS011;49038;47.600;19.242;2022-10-31T04:11:11;16.98;;;6.55;;
62933;SDS011;49038;47.600;19.242;2022-10-31T04:14:15;15.75;;;6.70;;
62933;SDS011;49038;47.600;19.242;2022-10-31T04:17:18;15.38;;;7.43;;
62933;SDS011;49038;47.600;19.242;2022-10-31T04:20:29;16.15;;;7.53;;
62933;SDS011;49038;47.600;19.242;2022-10-31T04:23:36;13.88;;;6.55;;
62933;SDS011;49038;47.600;19.242;2022-10-31T04:26:38;16.75;;;6.30;;
62933;SDS011;49038;47.600;19.242;2022-10-31T04:29:40;15.18;;;6.78;;
62933;SDS011;49038;47.600;19.242;2022-10-31T04:32:47;14.70;;;7.18;;
62933;SDS011;49038;47.600;19.242;2022-10-31T04:35:49;17.50;;;6.65;;
62933;SDS011;49038;47.600;19.242;2022-10-31T04:38:52;12.90;;;6.57;;
62933;SDS011;49038;47.600;19.242;2022-10-31T04:41:54;15.73;;;6.53;;
62933;SDS011;49038;47.600;19.242;2022-10-31T04:44:56;14.20;;;6.57;;
62933;SDS011;49038;47.600;19.242;2022-10-31T04:47:58;13.88;;;6.72;;
62933;SDS011;49038;47.600;19.242;2022-10-31T04:51:01;13.52;;;6.00;;
62933;SDS011;49038;47.600;19.242;2022-10-31T04:54:04;14.63;;;5.80;;
62933;SDS011;49038;47.600;19.242;2022-10-31T04:57:06;16.52;;;5.82;;
62933;SDS011;49038;47.600;19.242;2022-10-31T05:00:09;10.82;;;5.68;;
62933;SDS011;49038;47.600;19.242;2022-10-31T05:03:12;11.30;;;5.82;;
62933;SDS011;49038;47.600;19.242;2022-10-31T05:06:14;12.05;;;5.82;;
62933;SDS011;49038;47.600;19.242;2022-10-31T05:09:18;12.55;;;5.60;;
62933;SDS011;49038;47.600;19.242;2022-10-31T05:12:20;9.80;;;5.30;;
62933;SDS011;49038;47.600;19.242;2022-10-31T05:15:23;13.43;;;5.82;;
62933;SDS011;49038;47.600;19.242;2022-10-31T05:18:26;10.13;;;5.90;;
62933;SDS011;49038;47.600;19.242;2022-10-31T05:21:28;14.07;;;5.75;;
62933;SDS011;49038;47.600;19.242;2022-10-31T05:24:30;15.30;;;5.62;;
62933;SDS011;49038;47.600;19.242;2022-10-31T05:27:32;12.57;;;5.75;;
62933;SDS011;49038;47.600;19.242;2022-10-31T05:30:34;11.65;;;5.37;;
62933;SDS011;49038;47.600;19.242;2022-10-31T05:33:37;13.70;;;4.97;;
62933;SDS011;49038;47.600;19.242;2022-10-31T05:36:39;15.15;;;5.70;;
62933;SDS011;49038;47.600;19.242;2022-10-31T05:39:41;14.52;;;6.72;;
62933;SDS011;49038;47.600;19.242;2022-10-31T05:42:43;11.73;;;5.78;;
62933;SDS011;49038;47.600;19.242;2022-10-31T05:45:47;11.60;;;5.30;;
62933;SDS011;49038;47.600;19.242;2022-10-31T05:48:54;15.45;;;6.05;;
62933;SDS011;49038;47.600;19.242;2022-10-31T05:52:00;11.23;;;5.32;;
62933;SDS011;49038;47.600;19.242;2022-10-31T05:55:03;17.48;;;6.07;;
62933;SDS011;49038;47.600;19.242;2022-10-31T05:58:05;10.38;;;5.80;;
62933;SDS011;49038;47.600;19.242;2022-10-31T06:01:07;11.75;;;6.20;;
62933;SDS011;49038;47.600;19.242;2022-10-31T06:04:10;12.63;;;5.47;;
62933;SDS011;49038;47.600;19.242;2022-10-31T06:07:12;9.73;;;4.68;;
62933;SDS011;49038;47.600;19.242;2022-10-31T06:10:14;13.13;;;5.15;;
62933;SDS011;49038;47.600;19.242;2022-10-31T06:13:17;17.52;;;7.12;;
62933;SDS011;49038;47.600;19.242;2022-10-31T06:16:19;10.05;;;5.70;;
62933;SDS011;49038;47.600;19.242;2022-10-31T06:19:21;13.52;;;5.15;;
62933;SDS011;49038;47.600;19.242;2022-10-31T06:22:24;11.48;;;5.25;;
62933;SDS011;49038;47.600;19.242;2022-10-31T06:25:26;10.43;;;4.80;;
62933;SDS011;49038;47.600;19.242;2022-10-31T06:28:28;11.60;;;5.28;;
62933;SDS011;49038;47.600;19.242;2022-10-31T06:31:31;15.90;;;5.22;;
62933;SDS011;49038;47.600;19.242;2022-10-31T06:34:33;14.35;;;5.28;;
62933;SDS011;49038;47.600;19.242;2022-10-31T06:37:35;10.55;;;5.55;;
62933;SDS011;49038;47.600;19.242;2022-10-31T06:40:37;10.30;;;4.65;;
62933;SDS011;49038;47.600;19.242;2022-10-31T06:43:39;8.48;;;4.60;;
62933;SDS011;49038;47.600;19.242;2022-10-31T06:46:42;10.02;;;5.05;;
62933;SDS011;49038;47.600;19.242;2022-10-31T06:49:44;7.97;;;4.00;;
62933;SDS011;49038;47.600;19.242;2022-10-31T06:52:50;10.55;;;5.18;;
62933;SDS011;49038;47.600;19.242;2022-10-31T06:55:53;10.38;;;4.82;;
62933;SDS011;49038;47.600;19.242;2022-10-31T06:58:58;6.72;;;3.85;;
62933;SDS011;49038;47.600;19.242;2022-10-31T07:02:00;8.82;;;3.83;;
62933;SDS011;49038;47.600;19.242;2022-10-31T07:05:02;8.15;;;4.90;;
62933;SDS011;49038;47.600;19.242;2022-10-31T07:08:05;9.05;;;4.22;;
62933;SDS011;49038;47.600;19.242;2022-10-31T07:11:10;10.75;;;4.80;;
62933;SDS011;49038;47.600;19.242;2022-10-31T07:14:12;9.60;;;4.43;;
62933;SDS011;49038;47.600;19.242;2022-10-31T07:17:14;10.93;;;5.60;;
62933;SDS011;49038;47.600;19.242;2022-10-31T07:20:17;10.50;;;5.00;;
62933;SDS011;49038;47.600;19.242;2022-10-31T07:23:19;10.55;;;5.30;;
62933;SDS011;49038;47.600;19.242;2022-10-31T07:26:24;10.45;;;5.07;;
62933;SDS011;49038;47.600;19.242;2022-10-31T07:29:27;11.63;;;5.07;;
62933;SDS011;49038;47.600;19.242;2022-10-31T07:32:46;9.77;;;4.87;;
62933;SDS011;49038;47.600;19.242;2022-10-31T07:35:49;8.52;;;3.80;;
62933;SDS011;49038;47.600;19.242;2022-10-31T07:38:51;13.32;;;5.80;;
62933;SDS011;49038;47.600;19.242;2022-10-31T07:41:53;12.32;;;5.18;;
62933;SDS011;49038;47.600;19.242;2022-10-31T07:44:56;6.82;;;4.20;;
62933;SDS011;49038;47.600;19.242;2022-10-31T07:47:58;11.15;;;4.05;;
62933;SDS011;49038;47.600;19.242;2022-10-31T07:51:01;8.63;;;4.25;;
62933;SDS011;49038;47.600;19.242;2022-10-31T07:54:03;9.77;;;5.12;;
62933;SDS011;49038;47.600;19.242;2022-10-31T07:57:05;10.18;;;4.30;;
62933;SDS011;49038;47.600;19.242;2022-10-31T08:00:08;8.68;;;4.35;;
62933;SDS011;49038;47.600;19.242;2022-10-31T08:03:15;7.10;;;4.43;;
62933;SDS011;49038;47.600;19.242;2022-10-31T08:06:18;7.62;;;3.50;;
62933;SDS011;49038;47.600;19.242;2022-10-31T08:09:20;7.40;;;3.83;;
62933;SDS011;49038;47.600;19.242;2022-10-31T08:12:23;6.00;;;3.92;;
62933;SDS011;49038;47.600;19.242;2022-10-31T08:15:25;9.13;;;4.55;;
62933;SDS011;49038;47.600;19.242;2022-10-31T08:18:27;5.78;;;3.53;;
62933;SDS011;49038;47.600;19.242;2022-10-31T08:21:30;7.25;;;3.83;;
62933;SDS011;49038;47.600;19.242;2022-10-31T08:24:32;7.78;;;4.05;;
62933;SDS011;49038;47.600;19.242;2022-10-31T08:27:34;6.10;;;3.65;;
62933;SDS011;49038;47.600;19.242;2022-10-31T08:30:37;8.52;;;3.92;;
62933;SDS011;49038;47.600;19.242;2022-10-31T08:33:39;6.85;;;3.80;;
62933;SDS011;49038;47.600;19.242;2022-10-31T08:36:41;9.15;;;4.20;;
62933;SDS011;49038;47.600;19.242;2022-10-31T08:39:46;7.15;;;3.97;;
62933;SDS011;49038;47.600;19.242;2022-10-31T08:43:11;6.25;;;3.95;;
62933;SDS011;49038;47.600;19.242;2022-10-31T08:46:15;6.90;;;4.07;;
62933;SDS011;49038;47.600;19.242;2022-10-31T08:49:17;6.90;;;3.62;;
62933;SDS011;49038;47.600;19.242;2022-10-31T08:52:22;6.97;;;4.12;;
62933;SDS011;49038;47.600;19.242;2022-10-31T08:55:45;8.60;;;4.00;;
62933;SDS011;49038;47.600;19.242;2022-10-31T08:58:48;7.97;;;4.18;;
62933;SDS011;49038;47.600;19.242;2022-10-31T09:01:50;6.50;;;3.87;;
62933;SDS011;49038;47.600;19.242;2022-10-31T09:04:53;5.97;;;3.70;;
62933;SDS011;49038;47.600;19.242;2022-10-31T09:07:55;7.65;;;3.83;;
62933;SDS011;49038;47.600;19.242;2022-10-31T09:10:59;6.93;;;3.87;;
62933;SDS011;49038;47.600;19.242;2022-10-31T09:14:02;8.00;;;4.25;;
62933;SDS011;49038;47.600;19.242;2022-10-31T09:17:04;7.22;;;4.15;;
62933;SDS011;49038;47.600;19.242;2022-10-31T09:20:06;7.00;;;4.12;;
62933;SDS011;49038;47.600;19.242;2022-10-31T09:23:16;7.30;;;3.78;;
62933;SDS011;49038;47.600;19.242;2022-10-31T09:26:19;6.43;;;4.05;;
62933;SDS011;49038;47.600;19.242;2022-10-31T09:29:22;8.48;;;3.85;;
62933;SDS011;49038;47.600;19.242;2022-10-31T09:32:24;6.60;;;4.05;;
62933;SDS011;49038;47.600;19.242;2022-10-31T09:35:27;5.85;;;3.95;;
62933;SDS011;49038;47.600;19.242;2022-10-31T09:38:29;5.47;;;3.37;;
62933;SDS011;49038;47.600;19.242;2022-10-31T09:41:46;6.87;;;3.62;;
62933;SDS011;49038;47.600;19.242;2022-10-31T09:52:11;9.30;;;3.00;;
62933;SDS011;49038;47.600;19.242;2022-10-31T09:55:25;6.15;;;4.00;;
62933;SDS011;49038;47.600;19.242;2022-10-31T09:58:29;9.05;;;3.95;;
62933;SDS011;49038;47.600;19.242;2022-10-31T10:01:54;7.12;;;4.28;;
62933;SDS011;49038;47.600;19.242;2022-10-31T10:05:05;7.40;;;4.15;;
62933;SDS011;49038;47.600;19.242;2022-10-31T10:08:12;7.40;;;4.32;;
62933;SDS011;49038;47.600;19.242;2022-10-31T10:11:30;10.52;;;4.47;;
62933;SDS011;49038;47.600;19.242;2022-10-31T10:20:59;6.80;;;4.15;;
62933;SDS011;49038;47.600;19.242;2022-10-31T10:24:34;6.78;;;4.22;;
62933;SDS011;49038;47.600;19.242;2022-10-31T10:31:30;6.97;;;3.90;;
62933;SDS011;49038;47.600;19.242;2022-10-31T10:34:37;7.65;;;4.25;;
62933;SDS011;49038;47.600;19.242;2022-10-31T10:37:45;6.43;;;3.70;;
62933;SDS011;49038;47.600;19.242;2022-10-31T10:40:48;6.37;;;3.83;;
62933;SDS011;49038;47.600;19.242;2022-10-31T10:43:51;7.93;;;4.12;;
62933;SDS011;49038;47.600;19.242;2022-10-31T10:46:56;7.05;;;4.00;;
62933;SDS011;49038;47.600;19.242;2022-10-31T10:50:27;6.57;;;3.78;;
62933;SDS011;49038;47.600;19.242;2022-10-31T10:53:46;7.90;;;4.37;;
62933;SDS011;49038;47.600;19.242;2022-10-31T10:57:22;11.43;;;4.18;;
62933;SDS011;49038;47.600;19.242;2022-10-31T11:00:46;8.73;;;4.72;;
62933;SDS011;49038;47.600;19.242;2022-10-31T11:03:49;7.10;;;4.05;;
62933;SDS011;49038;47.600;19.242;2022-10-31T11:07:02;6.87;;;4.12;;
62933;SDS011;49038;47.600;19.242;2022-10-31T11:10:13;7.80;;;4.05;;
62933;SDS011;49038;47.600;19.242;2022-10-31T11:13:22;8.88;;;4.60;;
62933;SDS011;49038;47.600;19.242;2022-10-31T11:19:27;9.43;;;4.72;;
62933;SDS011;49038;47.600;19.242;2022-10-31T11:22:30;7.78;;;5.05;;
62933;SDS011;49038;47.600;19.242;2022-10-31T11:25:32;9.82;;;5.20;;
62933;SDS011;49038;47.600;19.242;2022-10-31T11:28:34;6.87;;;4.45;;
62933;SDS011;49038;47.600;19.242;2022-10-31T11:31:37;10.35;;;5.93;;
62933;SDS011;49038;47.600;19.242;2022-10-31T11:34:42;7.50;;;4.62;;
62933;SDS011;49038;47.600;19.242;2022-10-31T11:37:48;7.72;;;4.68;;
62933;SDS011;49038;47.600;19.242;2022-10-31T11:41:26;8.50;;;4.80;;
62933;SDS011;49038;47.600;19.242;2022-10-31T11:44:29;9.50;;;4.43;;
62933;SDS011;49038;47.600;19.242;2022-10-31T11:47:32;7.97;;;4.87;;
62933;SDS011;49038;47.600;19.242;2022-10-31T11:50:39;9.82;;;4.80;;
62933;SDS011;49038;47.600;19.242;2022-10-31T11:53:48;8.88;;;4.78;;
62933;SDS011;49038;47.600;19.242;2022-10-31T11:56:59;9.77;;;5.00;;
62933;SDS011;49038;47.600;19.242;2022-10-31T12:00:03;9.70;;;4.90;;
62933;SDS011;49038;47.600;19.242;2022-10-31T12:06:24;8.45;;;4.65;;
62933;SDS011;49038;47.600;19.242;2022-10-31T12:09:32;8.07;;;4.50;;
62933;SDS011;49038;47.600;19.242;2022-10-31T12:12:39;8.68;;;4.85;;
62933;SDS011;49038;47.600;19.242;2022-10-31T12:16:05;10.55;;;4.75;;
62933;SDS011;49038;47.600;19.242;2022-10-31T12:22:58;8.85;;;4.22;;
62933;SDS011;49038;47.600;19.242;2022-10-31T12:26:30;9.30;;;4.47;;
62933;SDS011;49038;47.600;19.242;2022-10-31T12:29:56;6.75;;;4.60;;
62933;SDS011;49038;47.600;19.242;2022-10-31T12:43:24;8.00;;;4.12;;
62933;SDS011;49038;47.600;19.242;2022-10-31T12:46:49;6.93;;;4.37;;
62933;SDS011;49038;47.600;19.242;2022-10-31T12:50:47;8.48;;;4.90;;
62933;SDS011;49038;47.600;19.242;2022-10-31T12:57:07;7.60;;;4.57;;
62933;SDS011;49038;47.600;19.242;2022-10-31T13:00:19;9.25;;;4.40;;
62933;SDS011;49038;47.600;19.242;2022-10-31T13:03:32;6.47;;;4.43;;
62933;SDS011;49038;47.600;19.242;2022-10-31T13:06:38;10.03;;;5.27;;
62933;SDS011;49038;47.600;19.242;2022-10-31T13:10:13;7.45;;;4.93;;
62933;SDS011;49038;47.600;19.242;2022-10-31T13:13:27;10.48;;;5.10;;
62933;SDS011;49038;47.600;19.242;2022-10-31T13:16:46;9.85;;;4.28;;
62933;SDS011;49038;47.600;19.242;2022-10-31T13:19:49;7.23;;;4.30;;
62933;SDS011;49038;47.600;19.242;2022-10-31T13:23:12;9.63;;;4.47;;
62933;SDS011;49038;47.600;19.242;2022-10-31T13:26:47;10.63;;;4.60;;
62933;SDS011;49038;47.600;19.242;2022-10-31T13:42:24;10.65;;;4.60;;
62933;SDS011;49038;47.600;19.242;2022-10-31T13:45:27;11.30;;;4.68;;
62933;SDS011;49038;47.600;19.242;2022-10-31T13:48:34;10.75;;;5.10;;
62933;SDS011;49038;47.600;19.242;2022-10-31T13:51:38;8.82;;;4.43;;
62933;SDS011;49038;47.600;19.242;2022-10-31T13:54:44;9.68;;;5.25;;
62933;SDS011;49038;47.600;19.242;2022-10-31T13:57:47;9.85;;;4.22;;
62933;SDS011;49038;47.600;19.242;2022-10-31T14:07:25;9.80;;;4.62;;
62933;SDS011;49038;47.600;19.242;2022-10-31T14:10:36;9.75;;;4.65;;
62933;SDS011;49038;47.600;19.242;2022-10-31T14:13:44;9.05;;;4.85;;
62933;SDS011;49038;47.600;19.242;2022-10-31T14:16:53;6.18;;;3.75;;
62933;SDS011;49038;47.600;19.242;2022-10-31T14:26:32;8.80;;;4.43;;
62933;SDS011;49038;47.600;19.242;2022-10-31T14:29:36;11.40;;;4.28;;
62933;SDS011;49038;47.600;19.242;2022-10-31T14:32:38;7.12;;;4.20;;
62933;SDS011;49038;47.600;19.242;2022-10-31T14:35:51;10.52;;;4.82;;
62933;SDS011;49038;47.600;19.242;2022-10-31T14:38:59;8.75;;;4.43;;
62933;SDS011;49038;47.600;19.242;2022-10-31T14:51:52;7.32;;;4.57;;
62933;SDS011;49038;47.600;19.242;2022-10-31T14:54:56;10.00;;;4.37;;
62933;SDS011;49038;47.600;19.242;2022-10-31T14:58:01;8.50;;;5.03;;
62933;SDS011;49038;47.600;19.242;2022-10-31T15:01:06;11.63;;;5.40;;
62933;SDS011;49038;47.600;19.242;2022-10-31T15:07:47;9.93;;;5.32;;
62933;SDS011;49038;47.600;19.242;2022-10-31T15:11:02;8.23;;;5.05;;
62933;SDS011;49038;47.600;19.242;2022-10-31T15:14:26;18.08;;;6.90;;
62933;SDS011;49038;47.600;19.242;2022-10-31T15:17:32;21.33;;;6.97;;
62933;SDS011;49038;47.600;19.242;2022-10-31T15:20:37;10.70;;;5.15;;
62933;SDS011;49038;47.600;19.242;2022-10-31T15:23:43;14.70;;;5.87;;
62933;SDS011;49038;47.600;19.242;2022-10-31T15:26:49;9.40;;;5.15;;
62933;SDS011;49038;47.600;19.242;2022-10-31T15:29:54;9.55;;;5.72;;
62933;SDS011;49038;47.600;19.242;2022-10-31T15:32:57;10.43;;;6.15;;
62933;SDS011;49038;47.600;19.242;2022-10-31T15:36:01;11.18;;;5.05;;
62933;SDS011;49038;47.600;19.242;2022-10-31T15:39:04;10.70;;;5.65;;
62933;SDS011;49038;47.600;19.242;2022-10-31T15:45:27;11.37;;;5.70;;
62933;SDS011;49038;47.600;19.242;2022-10-31T15:48:31;7.97;;;5.20;;
62933;SDS011;49038;47.600;19.242;2022-10-31T15:51:36;8.45;;;4.45;;
62933;SDS011;49038;47.600;19.242;2022-10-31T15:54:45;18.48;;;10.30;;
62933;SDS011;49038;47.600;19.242;2022-10-31T15:57:52;12.30;;;7.32;;
62933;SDS011;49038;47.600;19.242;2022-10-31T16:01:02;8.88;;;5.05;;
62933;SDS011;49038;47.600;19.242;2022-10-31T16:07:12;7.97;;;4.62;;
62933;SDS011;49038;47.600;19.242;2022-10-31T16:10:24;8.73;;;4.75;;
62933;SDS011;49038;47.600;19.242;2022-10-31T16:13:28;7.95;;;4.80;;
62933;SDS011;49038;47.600;19.242;2022-10-31T16:16:31;9.57;;;4.72;;
62933;SDS011;49038;47.600;19.242;2022-10-31T16:19:37;7.40;;;3.97;;
62933;SDS011;49038;47.600;19.242;2022-10-31T16:22:51;9.52;;;4.90;;
62933;SDS011;49038;47.600;19.242;2022-10-31T16:25:53;8.32;;;4.70;;
62933;SDS011;49038;47.600;19.242;2022-10-31T16:28:56;9.07;;;4.45;;
62933;SDS011;49038;47.600;19.242;2022-10-31T16:32:23;11.70;;;5.22;;
62933;SDS011;49038;47.600;19.242;2022-10-31T16:35:37;11.05;;;5.22;;
62933;SDS011;49038;47.600;19.242;2022-10-31T16:38:40;8.23;;;5.65;;
62933;SDS011;49038;47.600;19.242;2022-10-31T16:41:46;14.07;;;5.32;;
62933;SDS011;49038;47.600;19.242;2022-10-31T16:44:49;8.52;;;4.55;;
62933;SDS011;49038;47.600;19.242;2022-10-31T16:47:51;7.30;;;4.40;;
62933;SDS011;49038;47.600;19.242;2022-10-31T16:50:54;9.40;;;4.78;;
62933;SDS011;49038;47.600;19.242;2022-10-31T16:53:56;9.15;;;4.72;;
62933;SDS011;49038;47.600;19.242;2022-10-31T16:56:58;10.25;;;4.85;;
62933;SDS011;49038;47.600;19.242;2022-10-31T17:00:02;13.55;;;5.43;;
62933;SDS011;49038;47.600;19.242;2022-10-31T17:03:05;11.75;;;5.75;;
62933;SDS011;49038;47.600;19.242;2022-10-31T17:06:11;14.93;;;5.25;;
62933;SDS011;49038;47.600;19.242;2022-10-31T17:09:14;10.50;;;4.85;;
62933;SDS011;49038;47.600;19.242;2022-10-31T17:12:18;8.48;;;4.82;;
62933;SDS011;49038;47.600;19.242;2022-10-31T17:15:21;8.18;;;4.30;;
62933;SDS011;49038;47.600;19.242;2022-10-31T17:18:25;12.48;;;5.85;;
62933;SDS011;49038;47.600;19.242;2022-10-31T17:21:28;10.00;;;4.75;;
62933;SDS011;49038;47.600;19.242;2022-10-31T17:24:31;10.90;;;4.70;;
62933;SDS011;49038;47.600;19.242;2022-10-31T17:27:33;12.10;;;5.80;;
62933;SDS011;49038;47.600;19.242;2022-10-31T17:30:36;10.30;;;5.28;;
62933;SDS011;49038;47.600;19.242;2022-10-31T17:33:39;14.15;;;5.90;;
62933;SDS011;49038;47.600;19.242;2022-10-31T17:36:41;12.80;;;5.87;;
62933;SDS011;49038;47.600;19.242;2022-10-31T17:39:43;11.73;;;5.53;;
62933;SDS011;49038;47.600;19.242;2022-10-31T17:42:49;9.63;;;4.68;;
62933;SDS011;49038;47.600;19.242;2022-10-31T17:45:57;11.98;;;5.10;;
62933;SDS011;49038;47.600;19.242;2022-10-31T17:49:00;10.27;;;4.97;;
62933;SDS011;49038;47.600;19.242;2022-10-31T17:52:03;7.72;;;4.95;;
62933;SDS011;49038;47.600;19.242;2022-10-31T17:55:06;11.05;;;5.55;;
62933;SDS011;49038;47.600;19.242;2022-10-31T17:58:09;13.43;;;6.53;;
62933;SDS011;49038;47.600;19.242;2022-10-31T18:01:15;17.60;;;6.12;;
62933;SDS011;49038;47.600;19.242;2022-10-31T18:04:19;14.13;;;6.35;;
62933;SDS011;49038;47.600;19.242;2022-10-31T18:07:21;14.82;;;6.15;;
62933;SDS011;49038;47.600;19.242;2022-10-31T18:10:23;12.70;;;5.80;;
62933;SDS011;49038;47.600;19.242;2022-10-31T18:13:26;14.65;;;5.93;;
62933;SDS011;49038;47.600;19.242;2022-10-31T18:16:29;11.12;;;5.20;;
62933;SDS011;49038;47.600;19.242;2022-10-31T18:19:31;11.20;;;4.85;;
62933;SDS011;49038;47.600;19.242;2022-10-31T18:22:34;12.13;;;4.87;;
62933;SDS011;49038;47.600;19.242;2022-10-31T18:25:36;11.02;;;4.65;;
62933;SDS011;49038;47.600;19.242;2022-10-31T18:28:44;10.88;;;5.07;;
62933;SDS011;49038;47.600;19.242;2022-10-31T18:31:46;9.48;;;4.40;;
62933;SDS011;49038;47.600;19.242;2022-10-31T18:34:49;10.63;;;4.57;;
62933;SDS011;49038;47.600;19.242;2022-10-31T18:37:51;12.88;;;4.80;;
62933;SDS011;49038;47.600;19.242;2022-10-31T18:40:53;15.65;;;4.70;;
62933;SDS011;49038;47.600;19.242;2022-10-31T18:43:56;10.68;;;4.32;;
62933;SDS011;49038;47.600;19.242;2022-10-31T18:47:00;12.80;;;4.57;;
62933;SDS011;49038;47.600;19.242;2022-10-31T18:50:03;10.38;;;4.40;;
62933;SDS011;49038;47.600;19.242;2022-10-31T18:53:05;13.95;;;3.97;;
62933;SDS011;49038;47.600;19.242;2022-10-31T18:56:09;15.52;;;4.85;;
62933;SDS011;49038;47.600;19.242;2022-10-31T18:59:12;10.55;;;4.80;;
62933;SDS011;49038;47.600;19.242;2022-10-31T19:02:14;9.75;;;4.22;;
62933;SDS011;49038;47.600;19.242;2022-10-31T19:05:18;12.02;;;4.68;;
62933;SDS011;49038;47.600;19.242;2022-10-31T19:08:22;14.55;;;5.35;;
62933;SDS011;49038;47.600;19.242;2022-10-31T19:11:24;13.73;;;4.53;;
62933;SDS011;49038;47.600;19.242;2022-10-31T19:14:27;16.98;;;5.55;;
62933;SDS011;49038;47.600;19.242;2022-10-31T19:17:29;16.90;;;6.20;;
62933;SDS011;49038;47.600;19.242;2022-10-31T19:20:31;28.42;;;5.55;;
62933;SDS011;49038;47.600;19.242;2022-10-31T19:23:34;15.93;;;5.55;;
62933;SDS011;49038;47.600;19.242;2022-10-31T19:26:37;12.82;;;5.95;;
62933;SDS011;49038;47.600;19.242;2022-10-31T19:29:39;14.02;;;6.15;;
62933;SDS011;49038;47.600;19.242;2022-10-31T19:32:43;14.77;;;5.80;;
62933;SDS011;49038;47.600;19.242;2022-10-31T19:35:45;14.60;;;5.50;;
62933;SDS011;49038;47.600;19.242;2022-10-31T19:38:48;15.57;;;5.78;;
62933;SDS011;49038;47.600;19.242;2022-10-31T19:41:52;14.20;;;6.57;;
62933;SDS011;49038;47.600;19.242;2022-10-31T19:44:54;21.83;;;7.12;;
62933;SDS011;49038;47.600;19.242;2022-10-31T19:47:57;17.52;;;6.10;;
62933;SDS011;49038;47.600;19.242;2022-10-31T19:51:00;11.52;;;5.45;;
62933;SDS011;49038;47.600;19.242;2022-10-31T19:54:04;24.20;;;7.37;;
62933;SDS011;49038;47.600;19.242;2022-10-31T19:57:07;16.00;;;6.93;;
62933;SDS011;49038;47.600;19.242;2022-10-31T20:00:09;19.05;;;7.70;;
62933;SDS011;49038;47.600;19.242;2022-10-31T20:03:12;19.62;;;6.95;;